Time;durP1;ratioP1;P1;durP2;ratioP2;P2;SDS_P1;SDS_P2;PMS_P1;PMS_P2;Temp;Humidity;BMP_temperature;BMP_pressure;BME280_temperature;BME280_humidity;BME280_pressure;Samples;Min_cycle;Max_cycle;Signal;HPM_P1;HPM_P2
2023/07/10 00:00:58;;;;;;;0.93;0.93;;;;;;;;;;5042503;28;20485;-75
2023/07/10 00:03:28;;;;;;;1.73;1.63;;;;;;;;;;5043622;28;20772;-75
2023/07/10 00:05:54;;;;;;;0.80;0.80;;;;;;;;;;5041868;28;20441;-75
2023/07/10 00:08:21;;;;;;;1.30;1.20;;;;;;;;;;5042604;28;20904;-74
2023/07/10 00:10:48;;;;;;;2.40;1.83;;;;;;;;;;5046590;28;20522;-75
2023/07/10 00:13:15;;;;;;;1.53;1.20;;;;;;;;;;5046170;28;20904;-74
2023/07/10 00:15:41;;;;;;;1.73;1.63;;;;;;;;;;5043204;28;20980;-75
2023/07/10 00:18:13;;;;;;;0.97;0.97;;;;;;;;;;5045568;28;20440;-75
2023/07/10 00:20:40;;;;;;;1.90;1.80;;;;;;;;;;5042356;28;20479;-75
2023/07/10 00:23:07;;;;;;;1.40;1.30;;;;;;;;;;5045196;28;20979;-74
2023/07/10 00:25:33;;;;;;;0.90;0.90;;;;;;;;;;5045572;28;20433;-75
2023/07/10 00:28:00;;;;;;;1.00;0.90;;;;;;;;;;5052386;28;20948;-75
2023/07/10 00:30:27;;;;;;;0.73;0.70;;;;;;;;;;5038227;28;20961;-75
2023/07/10 00:32:55;;;;;;;1.37;1.27;;;;;;;;;;5044943;28;20452;-75
2023/07/10 00:35:24;;;;;;;0.80;0.80;;;;;;;;;;5049957;28;21004;-74
2023/07/10 00:38:01;;;;;;;1.07;0.97;;;;;;;;;;5042416;28;20460;-75
2023/07/10 00:40:30;;;;;;;0.90;0.90;;;;;;;;;;5043067;28;20850;-75
2023/07/10 00:42:59;;;;;;;1.77;1.67;;;;;;;;;;5038670;28;20448;-74
2023/07/10 00:45:26;;;;;;;2.90;1.40;;;;;;;;;;5048934;28;20442;-75
2023/07/10 00:48:01;;;;;;;2.07;1.97;;;;;;;;;;5050300;28;20498;-74
2023/07/10 00:50:31;;;;;;;1.63;1.53;;;;;;;;;;5042866;28;20482;-75
2023/07/10 00:52:59;;;;;;;1.63;1.53;;;;;;;;;;5039007;28;20503;-74
2023/07/10 00:55:29;;;;;;;1.10;1.00;;;;;;;;;;5047991;28;20495;-75
2023/07/10 00:58:01;;;;;;;1.10;1.00;;;;;;;;;;5039925;28;20539;-75
2023/07/10 01:00:33;;;;;;;0.70;0.67;;;;;;;;;;5057932;28;20443;-75
2023/07/10 01:03:01;;;;;;;1.00;1.00;;;;;;;;;;5047810;28;20952;-74
2023/07/10 01:05:31;;;;;;;1.20;1.10;;;;;;;;;;5049733;28;20493;-74
2023/07/10 01:07:58;;;;;;;10.30;5.17;;;;;;;;;;5041671;28;20613;-75
2023/07/10 01:10:25;;;;;;;1.50;1.40;;;;;;;;;;5039119;28;20967;-74
2023/07/10 01:12:52;;;;;;;0.87;0.87;;;;;;;;;;5039648;28;20430;-74
2023/07/10 01:15:19;;;;;;;1.67;1.30;;;;;;;;;;5043108;28;20550;-73
2023/07/10 01:17:47;;;;;;;1.17;1.07;;;;;;;;;;5042135;28;21017;-74
2023/07/10 01:20:34;;;;;;;1.23;1.13;;;;;;;;;;5039922;28;20439;-74
2023/07/10 01:23:03;;;;;;;2.17;2.07;;;;;;;;;;5037566;28;20464;-73
2023/07/10 01:25:31;;;;;;;2.17;1.80;;;;;;;;;;5037038;28;20460;-73
2023/07/10 01:27:57;;;;;;;0.90;0.90;;;;;;;;;;5035700;28;20421;-74
2023/07/10 01:30:27;;;;;;;0.70;0.70;;;;;;;;;;5045648;28;20419;-74
2023/07/10 01:32:54;;;;;;;1.20;1.10;;;;;;;;;;5037437;28;20495;-74
2023/07/10 01:35:21;;;;;;;1.63;1.47;;;;;;;;;;5045627;28;20482;-74
2023/07/10 01:37:48;;;;;;;0.90;0.90;;;;;;;;;;5039538;28;20435;-74
2023/07/10 01:40:20;;;;;;;1.57;1.47;;;;;;;;;;5039112;28;20451;-73
2023/07/10 01:42:46;;;;;;;1.53;1.43;;;;;;;;;;5047189;28;20558;-73
2023/07/10 01:45:13;;;;;;;3.20;1.83;;;;;;;;;;5044211;28;20444;-75
2023/07/10 01:47:40;;;;;;;1.13;1.10;;;;;;;;;;5028374;28;20459;-75
2023/07/10 01:50:08;;;;;;;1.30;1.20;;;;;;;;;;5038666;28;20448;-73
2023/07/10 01:52:34;;;;;;;2.70;2.60;;;;;;;;;;5039998;28;20892;-74
2023/07/10 01:55:01;;;;;;;0.80;0.80;;;;;;;;;;5043764;28;21079;-74
2023/07/10 01:57:31;;;;;;;1.27;1.10;;;;;;;;;;5043611;28;20524;-74
2023/07/10 01:59:57;;;;;;;0.70;0.70;;;;;;;;;;5032056;28;20449;-75
2023/07/10 02:02:24;;;;;;;0.83;0.83;;;;;;;;;;5043948;28;20469;-75
2023/07/10 02:04:51;;;;;;;0.77;0.73;;;;;;;;;;5039561;28;20440;-75
2023/07/10 02:07:17;;;;;;;0.80;0.80;;;;;;;;;;5042313;28;20469;-74
2023/07/10 02:09:44;;;;;;;2.57;2.37;;;;;;;;;;5040588;28;20488;-76
2023/07/10 02:12:10;;;;;;;1.73;1.63;;;;;;;;;;5030453;28;20468;-75
2023/07/10 02:14:39;;;;;;;2.23;2.03;;;;;;;;;;5036641;28;20500;-75
2023/07/10 02:17:06;;;;;;;0.80;0.80;;;;;;;;;;5041500;28;20432;-75
2023/07/10 02:19:32;;;;;;;1.13;1.03;;;;;;;;;;5043699;28;20524;-75
2023/07/10 02:21:59;;;;;;;0.80;0.80;;;;;;;;;;5041249;28;20777;-75
2023/07/10 02:24:26;;;;;;;2.93;1.63;;;;;;;;;;5044113;28;20972;-75
2023/07/10 02:26:52;;;;;;;1.20;1.10;;;;;;;;;;5044416;28;20449;-75
2023/07/10 02:29:19;;;;;;;2.13;2.03;;;;;;;;;;5044360;28;20436;-74
2023/07/10 02:31:50;;;;;;;1.77;1.67;;;;;;;;;;5042288;28;20489;-73
2023/07/10 02:34:17;;;;;;;2.70;1.13;;;;;;;;;;5045612;28;20810;-75
2023/07/10 02:36:44;;;;;;;0.90;0.90;;;;;;;;;;5044104;28;20444;-75
2023/07/10 02:39:10;;;;;;;1.90;1.80;;;;;;;;;;5049236;28;20510;-73
2023/07/10 02:41:37;;;;;;;2.20;2.00;;;;;;;;;;5046623;28;20550;-74
2023/07/10 02:44:03;;;;;;;2.90;1.60;;;;;;;;;;5029359;28;20444;-75
2023/07/10 02:46:30;;;;;;;1.47;1.30;;;;;;;;;;5034488;28;20471;-75
2023/07/10 02:48:58;;;;;;;0.87;0.87;;;;;;;;;;5038614;28;20452;-75
2023/07/10 02:51:25;;;;;;;1.77;1.63;;;;;;;;;;5047741;28;20882;-75
2023/07/10 02:53:52;;;;;;;1.23;1.10;;;;;;;;;;5038430;28;21320;-74
2023/07/10 02:56:19;;;;;;;3.60;3.30;;;;;;;;;;5039751;28;21091;-75
2023/07/10 02:58:48;;;;;;;1.33;1.27;;;;;;;;;;5046027;28;20428;-76
2023/07/10 03:01:14;;;;;;;5.60;2.50;;;;;;;;;;5040451;28;20897;-72
2023/07/10 03:03:45;;;;;;;3.03;2.50;;;;;;;;;;5045397;28;20455;-75
2023/07/10 03:06:13;;;;;;;2.40;2.20;;;;;;;;;;5040643;28;20494;-75
2023/07/10 03:08:40;;;;;;;2.13;1.93;;;;;;;;;;5040656;28;20457;-75
2023/07/10 03:11:09;;;;;;;1.10;1.00;;;;;;;;;;5040012;28;20857;-76
2023/07/10 03:13:36;;;;;;;2.87;2.63;;;;;;;;;;5036771;28;20469;-73
2023/07/10 03:16:04;;;;;;;4.73;2.20;;;;;;;;;;5043957;28;20479;-72
2023/07/10 03:18:35;;;;;;;2.50;1.80;;;;;;;;;;5040101;28;20415;-75
2023/07/10 03:21:02;;;;;;;6.50;2.07;;;;;;;;;;5040033;28;20466;-73
2023/07/10 03:23:30;;;;;;;1.27;1.10;;;;;;;;;;5046343;28;20534;-75
2023/07/10 03:25:56;;;;;;;2.13;2.03;;;;;;;;;;5046281;28;20535;-74
2023/07/10 03:28:23;;;;;;;3.30;1.43;;;;;;;;;;5039049;28;20410;-75
2023/07/10 03:30:50;;;;;;;2.37;2.20;;;;;;;;;;5047931;28;21155;-74
2023/07/10 03:33:17;;;;;;;0.90;0.90;;;;;;;;;;5035137;28;20411;-73
2023/07/10 03:35:48;;;;;;;1.60;1.50;;;;;;;;;;5036012;28;21009;-72
2023/07/10 03:38:16;;;;;;;1.27;1.17;;;;;;;;;;5047119;28;20443;-74
2023/07/10 03:40:51;;;;;;;3.00;2.90;;;;;;;;;;5044338;28;20510;-75
2023/07/10 03:43:17;;;;;;;0.80;0.80;;;;;;;;;;5042535;28;20811;-73
2023/07/10 03:45:44;;;;;;;1.03;0.93;;;;;;;;;;5042910;28;20457;-74
2023/07/10 03:48:11;;;;;;;1.23;1.13;;;;;;;;;;5046008;28;20451;-74
2023/07/10 03:50:37;;;;;;;0.70;0.70;;;;;;;;;;5041051;28;20528;-74
2023/07/10 03:53:04;;;;;;;1.00;0.93;;;;;;;;;;5042590;28;20463;-73
2023/07/10 03:55:30;;;;;;;1.50;1.40;;;;;;;;;;5043073;28;20989;-72
2023/07/10 03:57:58;;;;;;;5.90;3.47;;;;;;;;;;5041982;28;20468;-73
2023/07/10 04:00:25;;;;;;;0.97;0.93;;;;;;;;;;5048221;28;20535;-74
2023/07/10 04:02:51;;;;;;;1.73;1.50;;;;;;;;;;5043862;28;20536;-74
2023/07/10 04:05:18;;;;;;;2.23;2.13;;;;;;;;;;5039172;28;20447;-74
2023/07/10 04:07:44;;;;;;;2.20;2.10;;;;;;;;;;5040259;28;20550;-74
2023/07/10 04:10:11;;;;;;;0.90;0.90;;;;;;;;;;5042252;28;20437;-73
2023/07/10 04:12:39;;;;;;;0.83;0.83;;;;;;;;;;5043464;28;20801;-72
2023/07/10 04:15:07;;;;;;;0.83;0.83;;;;;;;;;;5048572;28;20482;-74
2023/07/10 04:17:34;;;;;;;0.80;0.80;;;;;;;;;;5038799;28;20535;-74
2023/07/10 04:20:02;;;;;;;0.70;0.70;;;;;;;;;;5042680;28;20467;-74
2023/07/10 04:22:28;;;;;;;1.43;1.33;;;;;;;;;;5042221;28;20893;-71
2023/07/10 04:24:55;;;;;;;0.70;0.67;;;;;;;;;;5048141;28;20444;-74
2023/07/10 04:27:21;;;;;;;0.80;0.77;;;;;;;;;;5045639;28;20443;-73
2023/07/10 04:29:48;;;;;;;0.70;0.63;;;;;;;;;;5043772;28;20469;-72
2023/07/10 04:32:16;;;;;;;1.10;1.00;;;;;;;;;;5043670;28;20789;-74
2023/07/10 04:34:42;;;;;;;0.87;0.87;;;;;;;;;;5042637;28;20913;-74
2023/07/10 04:37:09;;;;;;;0.70;0.60;;;;;;;;;;5044271;28;20489;-73
2023/07/10 04:39:36;;;;;;;0.70;0.60;;;;;;;;;;5045495;28;20457;-73
2023/07/10 04:42:02;;;;;;;1.67;1.57;;;;;;;;;;5041721;28;20551;-73
2023/07/10 04:44:30;;;;;;;2.00;1.90;;;;;;;;;;5047906;28;20446;-73
2023/07/10 04:46:57;;;;;;;1.13;1.03;;;;;;;;;;5042907;28;20527;-75
2023/07/10 04:49:25;;;;;;;2.20;2.10;;;;;;;;;;5039557;28;20496;-74
2023/07/10 04:51:51;;;;;;;1.20;1.10;;;;;;;;;;5045326;28;21138;-74
2023/07/10 04:54:18;;;;;;;2.60;1.63;;;;;;;;;;5048389;28;20432;-74
2023/07/10 04:56:44;;;;;;;0.80;0.70;;;;;;;;;;5038673;28;20467;-73
2023/07/10 04:59:11;;;;;;;0.90;0.90;;;;;;;;;;5036410;28;20429;-73
2023/07/10 05:01:37;;;;;;;2.77;2.57;;;;;;;;;;5044008;28;20535;-73
2023/07/10 05:04:04;;;;;;;0.90;0.90;;;;;;;;;;5044243;28;20840;-72
2023/07/10 05:06:32;;;;;;;1.13;1.07;;;;;;;;;;5041808;28;20432;-76
2023/07/10 05:08:59;;;;;;;1.33;1.23;;;;;;;;;;5038138;28;20502;-74
2023/07/10 05:11:27;;;;;;;0.90;0.90;;;;;;;;;;5039561;28;20961;-73
2023/07/10 05:13:53;;;;;;;1.73;1.63;;;;;;;;;;5034141;28;20445;-73
2023/07/10 05:16:20;;;;;;;2.40;2.20;;;;;;;;;;5042133;28;20464;-74
2023/07/10 05:18:47;;;;;;;1.43;1.37;;;;;;;;;;5057920;28;20443;-74
2023/07/10 05:21:13;;;;;;;0.70;0.70;;;;;;;;;;5038419;28;20436;-74
2023/07/10 05:23:41;;;;;;;1.70;1.60;;;;;;;;;;5039771;28;21043;-73
2023/07/10 05:26:09;;;;;;;0.70;0.70;;;;;;;;;;5044801;28;20505;-74
2023/07/10 05:28:36;;;;;;;2.50;2.30;;;;;;;;;;5043611;28;20526;-74
2023/07/10 05:31:03;;;;;;;2.10;2.00;;;;;;;;;;5039031;28;20432;-73
2023/07/10 05:33:30;;;;;;;0.70;0.70;;;;;;;;;;5037069;28;20433;-74
2023/07/10 05:35:58;;;;;;;0.80;0.77;;;;;;;;;;5041406;28;20833;-73
2023/07/10 05:38:26;;;;;;;1.20;1.10;;;;;;;;;;5043462;28;20817;-74
2023/07/10 05:40:54;;;;;;;0.80;0.80;;;;;;;;;;5038765;28;20555;-74
2023/07/10 05:43:21;;;;;;;1.63;1.53;;;;;;;;;;5044153;28;20445;-74
2023/07/10 05:45:48;;;;;;;0.83;0.83;;;;;;;;;;5036534;28;20433;-74
2023/07/10 05:48:15;;;;;;;0.83;0.83;;;;;;;;;;5048804;28;20444;-74
2023/07/10 05:50:44;;;;;;;0.80;0.70;;;;;;;;;;5040649;28;20526;-74
2023/07/10 05:53:11;;;;;;;0.90;0.90;;;;;;;;;;5043989;28;20563;-75
2023/07/10 05:55:42;;;;;;;1.10;1.00;;;;;;;;;;5045922;28;20473;-74
2023/07/10 05:58:11;;;;;;;1.47;1.37;;;;;;;;;;5041910;28;20817;-74
2023/07/10 06:00:37;;;;;;;1.37;1.20;;;;;;;;;;5043511;28;20526;-75
2023/07/10 06:03:05;;;;;;;0.80;0.80;;;;;;;;;;5037671;28;20538;-73
2023/07/10 06:05:31;;;;;;;1.87;1.77;;;;;;;;;;5040792;28;20574;-74
2023/07/10 06:07:58;;;;;;;0.83;0.83;;;;;;;;;;5042489;28;20887;-74
2023/07/10 06:10:25;;;;;;;0.70;0.60;;;;;;;;;;5036936;28;20505;-74
2023/07/10 06:12:51;;;;;;;1.30;1.20;;;;;;;;;;5037381;28;20444;-75
2023/07/10 06:15:19;;;;;;;0.70;0.60;;;;;;;;;;5056359;28;20448;-74
2023/07/10 06:17:46;;;;;;;0.90;0.90;;;;;;;;;;5040461;28;20534;-75
2023/07/10 06:20:13;;;;;;;0.80;0.73;;;;;;;;;;5047630;28;20467;-74
2023/07/10 06:22:40;;;;;;;0.93;0.93;;;;;;;;;;5037642;28;20457;-74
2023/07/10 06:25:07;;;;;;;0.70;0.60;;;;;;;;;;5035603;28;20960;-75
2023/07/10 06:27:33;;;;;;;1.20;1.10;;;;;;;;;;5038114;28;20532;-74
2023/07/10 06:30:00;;;;;;;0.70;0.70;;;;;;;;;;5037796;28;20439;-74
2023/07/10 06:32:28;;;;;;;1.00;0.90;;;;;;;;;;5041423;28;20502;-74
2023/07/10 06:34:54;;;;;;;0.80;0.80;;;;;;;;;;5041261;28;20799;-74
2023/07/10 06:37:21;;;;;;;0.80;0.80;;;;;;;;;;5038730;28;20479;-74
2023/07/10 06:40:02;;;;;;;0.70;0.60;;;;;;;;;;5041533;28;20418;-75
2023/07/10 06:42:29;;;;;;;1.40;1.30;;;;;;;;;;5037420;28;20514;-74
2023/07/10 06:44:55;;;;;;;0.97;0.87;;;;;;;;;;5041357;28;20443;-75
2023/07/10 06:47:22;;;;;;;1.00;0.90;;;;;;;;;;5037681;28;20519;-75
2023/07/10 06:49:50;;;;;;;0.93;0.93;;;;;;;;;;5043458;28;20522;-75
2023/07/10 06:52:17;;;;;;;0.80;0.77;;;;;;;;;;5035620;28;20443;-75
2023/07/10 06:54:43;;;;;;;1.10;1.07;;;;;;;;;;5042102;28;20440;-76
2023/07/10 06:57:10;;;;;;;0.80;0.80;;;;;;;;;;5041268;28;20946;-75
2023/07/10 06:59:37;;;;;;;1.30;0.90;;;;;;;;;;5044595;28;20415;-74
2023/07/10 07:02:04;;;;;;;0.80;0.80;;;;;;;;;;5039417;28;20499;-74
2023/07/10 07:04:33;;;;;;;0.90;0.90;;;;;;;;;;5040082;28;20446;-75
2023/07/10 07:07:02;;;;;;;0.80;0.70;;;;;;;;;;5040279;28;20538;-75
2023/07/10 07:09:29;;;;;;;1.97;1.37;;;;;;;;;;5039561;28;20527;-75
2023/07/10 07:11:55;;;;;;;0.70;0.70;;;;;;;;;;5042602;28;20437;-74
2023/07/10 07:14:22;;;;;;;0.90;0.80;;;;;;;;;;5025347;28;20442;-76
2023/07/10 07:16:48;;;;;;;0.73;0.70;;;;;;;;;;5037865;28;20442;-76
2023/07/10 07:19:15;;;;;;;0.90;0.83;;;;;;;;;;5045455;28;20458;-76
2023/07/10 07:21:41;;;;;;;0.70;0.70;;;;;;;;;;5043062;28;20442;-75
2023/07/10 07:24:10;;;;;;;1.80;0.90;;;;;;;;;;5044051;28;20411;-75
2023/07/10 07:26:36;;;;;;;0.70;0.60;;;;;;;;;;5046883;28;20424;-76
2023/07/10 07:29:03;;;;;;;1.10;1.00;;;;;;;;;;5046949;28;20444;-75
2023/07/10 07:31:29;;;;;;;1.40;0.97;;;;;;;;;;5043641;28;20453;-76
2023/07/10 07:33:56;;;;;;;0.80;0.70;;;;;;;;;;5023886;28;20498;-76
2023/07/10 07:36:23;;;;;;;1.20;1.03;;;;;;;;;;5048018;28;20522;-74
2023/07/10 07:38:49;;;;;;;2.13;0.93;;;;;;;;;;5051982;28;20519;-75
2023/07/10 07:41:17;;;;;;;0.70;0.67;;;;;;;;;;5042388;28;20419;-75
2023/07/10 07:43:44;;;;;;;1.10;1.00;;;;;;;;;;5044166;28;20812;-72
2023/07/10 07:46:11;;;;;;;0.93;0.80;;;;;;;;;;5044562;28;20459;-73
2023/07/10 07:48:37;;;;;;;0.80;0.80;;;;;;;;;;5049554;28;20948;-75
2023/07/10 07:51:05;;;;;;;1.67;1.20;;;;;;;;;;5045297;28;20443;-76
2023/07/10 07:53:33;;;;;;;0.80;0.70;;;;;;;;;;5044416;28;20507;-77
2023/07/10 07:56:00;;;;;;;0.80;0.70;;;;;;;;;;5046296;28;20418;-72
2023/07/10 07:58:28;;;;;;;2.07;1.90;;;;;;;;;;5040647;28;20415;-74
2023/07/10 08:00:55;;;;;;;1.33;1.23;;;;;;;;;;5038511;28;20436;-75
2023/07/10 08:03:22;;;;;;;1.00;0.90;;;;;;;;;;5043547;28;20959;-78
2023/07/10 08:05:49;;;;;;;1.00;0.93;;;;;;;;;;5045739;28;20440;-75
2023/07/10 08:08:15;;;;;;;1.10;1.00;;;;;;;;;;5043176;28;20481;-75
2023/07/10 08:10:44;;;;;;;0.80;0.80;;;;;;;;;;5044743;28;20491;-75
2023/07/10 08:13:11;;;;;;;0.80;0.80;;;;;;;;;;5044112;28;20519;-75
2023/07/10 08:15:39;;;;;;;0.90;0.80;;;;;;;;;;5047441;28;20829;-74
2023/07/10 08:18:05;;;;;;;0.80;0.70;;;;;;;;;;5037552;28;20487;-74
2023/07/10 08:20:33;;;;;;;0.70;0.70;;;;;;;;;;5045896;28;20528;-75
2023/07/10 08:23:01;;;;;;;1.30;1.20;;;;;;;;;;5048047;28;20484;-74
2023/07/10 08:25:27;;;;;;;0.70;0.70;;;;;;;;;;5043162;28;20781;-74
2023/07/10 08:27:54;;;;;;;0.73;0.67;;;;;;;;;;5046154;28;20491;-74
2023/07/10 08:30:21;;;;;;;0.80;0.70;;;;;;;;;;5046518;28;20471;-76
2023/07/10 08:32:49;;;;;;;0.90;0.90;;;;;;;;;;5043235;28;20520;-75
2023/07/10 08:35:15;;;;;;;1.33;1.23;;;;;;;;;;5041966;28;20437;-76
2023/07/10 08:37:42;;;;;;;0.70;0.60;;;;;;;;;;5046578;28;20491;-76
2023/07/10 08:40:15;;;;;;;1.20;1.10;;;;;;;;;;5037362;28;20455;-76
2023/07/10 08:42:42;;;;;;;1.30;1.20;;;;;;;;;;5048549;28;20455;-75
2023/07/10 08:45:12;;;;;;;0.80;0.77;;;;;;;;;;5045560;28;20453;-75
2023/07/10 08:47:43;;;;;;;1.33;1.17;;;;;;;;;;5044256;28;20433;-75
2023/07/10 08:50:13;;;;;;;0.90;0.70;;;;;;;;;;5041847;28;20429;-74
2023/07/10 08:52:43;;;;;;;0.80;0.70;;;;;;;;;;5040807;28;20846;-74
2023/07/10 08:55:11;;;;;;;0.80;0.60;;;;;;;;;;5042912;28;20443;-77
2023/07/10 08:57:41;;;;;;;0.70;0.70;;;;;;;;;;5047934;28;20502;-75
2023/07/10 09:00:12;;;;;;;0.70;0.63;;;;;;;;;;5043429;28;20450;-75
2023/07/10 09:02:42;;;;;;;1.00;0.80;;;;;;;;;;5046721;28;20775;-74
2023/07/10 09:05:14;;;;;;;0.70;0.70;;;;;;;;;;5042851;28;20439;-76
2023/07/10 09:07:42;;;;;;;0.73;0.63;;;;;;;;;;5042838;28;20961;-75
2023/07/10 09:10:12;;;;;;;0.80;0.70;;;;;;;;;;5040936;28;20464;-74
2023/07/10 09:12:40;;;;;;;0.70;0.60;;;;;;;;;;5043380;28;20482;-75
2023/07/10 09:15:11;;;;;;;0.87;0.87;;;;;;;;;;5044974;28;20866;-75
2023/07/10 09:17:44;;;;;;;0.97;0.87;;;;;;;;;;5038096;28;20483;-76
2023/07/10 09:20:12;;;;;;;2.93;1.70;;;;;;;;;;5039321;28;20432;-76
2023/07/10 09:22:41;;;;;;;0.80;0.70;;;;;;;;;;5053741;28;20473;-77
2023/07/10 09:25:10;;;;;;;0.70;0.70;;;;;;;;;;5050618;28;20495;-76
2023/07/10 09:27:36;;;;;;;1.03;0.93;;;;;;;;;;5044739;28;20437;-77
2023/07/10 09:30:07;;;;;;;1.23;1.13;;;;;;;;;;5056691;28;20464;-76
2023/07/10 09:32:36;;;;;;;0.70;0.60;;;;;;;;;;5055104;28;20451;-76
2023/07/10 09:35:03;;;;;;;0.70;0.60;;;;;;;;;;5030471;28;20808;-75
2023/07/10 09:37:35;;;;;;;0.90;0.80;;;;;;;;;;5043497;28;20567;-75
2023/07/10 09:40:17;;;;;;;0.70;0.60;;;;;;;;;;5043065;28;20468;-75
2023/07/10 09:42:44;;;;;;;0.80;0.70;;;;;;;;;;5043035;28;20444;-79
2023/07/10 09:45:14;;;;;;;0.80;0.70;;;;;;;;;;5054689;28;20776;-78
2023/07/10 09:47:43;;;;;;;0.90;0.83;;;;;;;;;;5051755;28;20429;-77
2023/07/10 09:50:12;;;;;;;0.70;0.60;;;;;;;;;;5041506;28;20440;-78
2023/07/10 09:52:41;;;;;;;0.80;0.80;;;;;;;;;;5049326;28;20519;-78
2023/07/10 09:55:12;;;;;;;1.43;0.87;;;;;;;;;;5046157;28;20528;-80
2023/07/10 09:57:48;;;;;;;11.03;4.60;;;;;;;;;;5068337;28;21260;-77
2023/07/10 10:00:15;;;;;;;0.80;0.70;;;;;;;;;;5045745;28;20504;-79
2023/07/10 10:02:45;;;;;;;0.70;0.60;;;;;;;;;;5043266;28;20441;-78
2023/07/10 10:05:15;;;;;;;0.70;0.60;;;;;;;;;;5051670;28;20464;-77
2023/07/10 10:07:44;;;;;;;0.70;0.60;;;;;;;;;;5048745;28;20462;-78
2023/07/10 10:10:21;;;;;;;5.93;1.17;;;;;;;;;;5055094;28;20857;-78
2023/07/10 10:12:51;;;;;;;0.80;0.60;;;;;;;;;;5060044;28;21108;-77
2023/07/10 10:15:22;;;;;;;0.70;0.60;;;;;;;;;;5046464;28;20434;-78
2023/07/10 10:17:49;;;;;;;0.90;0.60;;;;;;;;;;5046454;28;20464;-79
2023/07/10 10:20:20;;;;;;;0.80;0.70;;;;;;;;;;5045671;28;20459;-77
2023/07/10 10:22:48;;;;;;;0.70;0.60;;;;;;;;;;5050463;28;20455;-78
2023/07/10 10:25:16;;;;;;;0.70;0.50;;;;;;;;;;5048344;28;20445;-79
2023/07/10 10:27:46;;;;;;;0.70;0.60;;;;;;;;;;5051954;28;20463;-75
2023/07/10 10:30:18;;;;;;;0.70;0.60;;;;;;;;;;5061512;28;20458;-78
2023/07/10 10:32:47;;;;;;;0.70;0.60;;;;;;;;;;5057269;28;20459;-78
2023/07/10 10:35:17;;;;;;;0.70;0.60;;;;;;;;;;5051359;28;20464;-77
2023/07/10 10:37:50;;;;;;;0.70;0.60;;;;;;;;;;5045018;28;21067;-77
2023/07/10 10:40:23;;;;;;;0.70;0.50;;;;;;;;;;5041277;28;20433;-75
2023/07/10 10:42:52;;;;;;;1.47;1.10;;;;;;;;;;5045012;28;20498;-78
2023/07/10 10:45:22;;;;;;;0.70;0.60;;;;;;;;;;5049594;28;20532;-77
2023/07/10 10:47:57;;;;;;;0.70;0.60;;;;;;;;;;5046800;28;20429;-77
2023/07/10 10:50:29;;;;;;;3.23;0.70;;;;;;;;;;5047952;28;20441;-76
2023/07/10 10:53:05;;;;;;;0.70;0.60;;;;;;;;;;5050257;28;20471;-74
2023/07/10 10:55:37;;;;;;;0.70;0.50;;;;;;;;;;5042906;28;21063;-79
2023/07/10 10:58:14;;;;;;;1.20;0.80;;;;;;;;;;5040352;28;20861;-78
2023/07/10 11:00:50;;;;;;;0.70;0.50;;;;;;;;;;5039998;28;20424;-78
2023/07/10 11:03:23;;;;;;;0.70;0.50;;;;;;;;;;5050017;28;20510;-76
2023/07/10 11:05:52;;;;;;;0.70;0.60;;;;;;;;;;5041629;28;20480;-78
2023/07/10 11:08:21;;;;;;;0.70;0.50;;;;;;;;;;5044673;28;20464;-78
2023/07/10 11:10:52;;;;;;;0.70;0.60;;;;;;;;;;5044048;28;20428;-78
2023/07/10 11:13:23;;;;;;;0.70;0.50;;;;;;;;;;5027380;28;20515;-78
2023/07/10 11:15:50;;;;;;;1.00;0.90;;;;;;;;;;5048160;28;20439;-79
2023/07/10 11:18:17;;;;;;;1.00;0.90;;;;;;;;;;5045222;28;20469;-78
2023/07/10 11:20:43;;;;;;;2.40;2.20;;;;;;;;;;5049484;28;20445;-78
2023/07/10 11:23:25;;;;;;;0.70;0.50;;;;;;;;;;5031847;28;20464;-79
2023/07/10 11:25:59;;;;;;;0.70;0.50;;;;;;;;;;5031730;28;20552;-77
2023/07/10 11:28:27;;;;;;;0.70;0.50;;;;;;;;;;5046106;28;20423;-78
2023/07/10 11:31:08;;;;;;;0.70;0.60;;;;;;;;;;5046122;28;20427;-78
2023/07/10 11:33:35;;;;;;;0.70;0.50;;;;;;;;;;5048391;28;20456;-78
2023/07/10 11:36:13;;;;;;;0.83;0.70;;;;;;;;;;5045200;28;20493;-79
2023/07/10 11:38:56;;;;;;;0.80;0.70;;;;;;;;;;5051322;28;20479;-78
2023/07/10 11:41:29;;;;;;;0.70;0.50;;;;;;;;;;5055321;28;20435;-76
2023/07/10 11:44:12;;;;;;;0.70;0.50;;;;;;;;;;5046978;28;20440;-79
2023/07/10 11:46:54;;;;;;;0.70;0.50;;;;;;;;;;5039961;28;20476;-79
2023/07/10 11:49:21;;;;;;;1.23;1.13;;;;;;;;;;5028991;28;20557;-79
2023/07/10 11:52:06;;;;;;;0.70;0.50;;;;;;;;;;5049891;28;20453;-76
2023/07/10 11:54:42;;;;;;;0.70;0.50;;;;;;;;;;5048230;28;20493;-75
2023/07/10 11:57:14;;;;;;;0.70;0.53;;;;;;;;;;5039191;28;20856;-78
2023/07/10 11:59:45;;;;;;;0.70;0.50;;;;;;;;;;5044932;28;20431;-79
2023/07/10 12:02:23;;;;;;;1.00;0.70;;;;;;;;;;5045451;28;20424;-75
2023/07/10 12:04:50;;;;;;;0.80;0.50;;;;;;;;;;5041906;28;20767;-76
2023/07/10 12:07:17;;;;;;;0.70;0.50;;;;;;;;;;5045740;28;20546;-77
2023/07/10 12:09:48;;;;;;;0.70;0.50;;;;;;;;;;5035475;28;20494;-77
2023/07/10 12:12:16;;;;;;;0.70;0.50;;;;;;;;;;5035565;28;20484;-75
2023/07/10 12:14:42;;;;;;;0.70;0.50;;;;;;;;;;5052005;28;20476;-75
2023/07/10 12:17:13;;;;;;;0.70;0.50;;;;;;;;;;5055326;28;20500;-78
2023/07/10 12:19:44;;;;;;;0.70;0.50;;;;;;;;;;5042966;28;20499;-76
2023/07/10 12:22:17;;;;;;;0.80;0.60;;;;;;;;;;5034950;28;20503;-76
2023/07/10 12:24:46;;;;;;;1.00;0.63;;;;;;;;;;5053742;28;20449;-77
2023/07/10 12:27:13;;;;;;;0.80;0.50;;;;;;;;;;5055356;28;20440;-75
2023/07/10 12:29:51;;;;;;;0.90;0.63;;;;;;;;;;5046956;28;20868;-78
2023/07/10 12:32:17;;;;;;;2.30;0.60;;;;;;;;;;5052546;28;20543;-78
2023/07/10 12:34:45;;;;;;;0.80;0.50;;;;;;;;;;5048848;28;20433;-79
2023/07/10 12:37:14;;;;;;;1.37;1.23;;;;;;;;;;5052198;28;20502;-77
2023/07/10 12:39:42;;;;;;;0.80;0.60;;;;;;;;;;5051453;28;20532;-74
2023/07/10 12:42:26;;;;;;;0.80;0.50;;;;;;;;;;5052689;28;20518;-77
2023/07/10 12:44:54;;;;;;;0.80;0.50;;;;;;;;;;5060407;28;20471;-74
2023/07/10 12:47:20;;;;;;;0.80;0.50;;;;;;;;;;5052802;28;20420;-77
2023/07/10 12:49:51;;;;;;;2.30;0.70;;;;;;;;;;5057192;28;20433;-74
2023/07/10 12:52:18;;;;;;;0.80;0.60;;;;;;;;;;5049458;28;20461;-79
2023/07/10 12:54:46;;;;;;;0.80;0.50;;;;;;;;;;5045966;28;20816;-77
2023/07/10 12:57:14;;;;;;;0.80;0.60;;;;;;;;;;5060792;28;20441;-75
2023/07/10 12:59:41;;;;;;;0.80;0.50;;;;;;;;;;5032059;28;20489;-75
2023/07/10 13:02:16;;;;;;;0.80;0.53;;;;;;;;;;5049569;28;20502;-78
2023/07/10 13:04:46;;;;;;;0.80;0.60;;;;;;;;;;5043802;28;20443;-78
2023/07/10 13:07:15;;;;;;;0.83;0.60;;;;;;;;;;5042003;28;20859;-75
2023/07/10 13:09:56;;;;;;;0.80;0.50;;;;;;;;;;5044311;28;20427;-79
2023/07/10 13:12:24;;;;;;;0.80;0.50;;;;;;;;;;5041106;28;20530;-75
2023/07/10 13:14:51;;;;;;;0.80;0.50;;;;;;;;;;5044767;28;20450;-76
2023/07/10 13:17:21;;;;;;;0.90;0.60;;;;;;;;;;5045005;28;20482;-76
2023/07/10 13:19:48;;;;;;;0.93;0.73;;;;;;;;;;5041668;28;20466;-77
2023/07/10 13:22:32;;;;;;;0.90;0.53;;;;;;;;;;5043824;28;20479;-76
2023/07/10 13:24:59;;;;;;;0.90;0.50;;;;;;;;;;5026083;28;20841;-77
2023/07/10 13:27:26;;;;;;;0.90;0.50;;;;;;;;;;5030432;28;20464;-77
2023/07/10 13:29:53;;;;;;;0.90;0.60;;;;;;;;;;5049332;28;20769;-77
2023/07/10 13:32:21;;;;;;;0.90;0.50;;;;;;;;;;5049523;28;20456;-75
2023/07/10 13:34:47;;;;;;;0.80;0.50;;;;;;;;;;5051617;28;20541;-77
2023/07/10 13:37:17;;;;;;;0.90;0.60;;;;;;;;;;5056987;28;20469;-78
2023/07/10 13:39:43;;;;;;;0.90;0.60;;;;;;;;;;5049042;28;20471;-74
2023/07/10 13:42:11;;;;;;;0.90;0.60;;;;;;;;;;5045185;28;20439;-77
2023/07/10 13:44:38;;;;;;;1.03;0.93;;;;;;;;;;5049829;28;20431;-73
2023/07/10 13:47:11;;;;;;;0.90;0.57;;;;;;;;;;5042534;28;20925;-77
2023/07/10 13:49:39;;;;;;;0.90;0.50;;;;;;;;;;5046624;28;20431;-76
2023/07/10 13:52:12;;;;;;;1.03;0.80;;;;;;;;;;5045738;28;20554;-79
2023/07/10 13:54:39;;;;;;;1.00;0.60;;;;;;;;;;5028794;28;20460;-77
2023/07/10 13:57:11;;;;;;;0.90;0.50;;;;;;;;;;5047486;28;20504;-78
2023/07/10 13:59:38;;;;;;;0.90;0.50;;;;;;;;;;5048241;28;20564;-78
2023/07/10 14:02:15;;;;;;;0.90;0.50;;;;;;;;;;5046983;28;20427;-77
2023/07/10 14:04:43;;;;;;;0.90;0.50;;;;;;;;;;5036669;28;20451;-77
2023/07/10 14:07:21;;;;;;;1.30;0.70;;;;;;;;;;5045033;28;21024;-76
2023/07/10 14:09:48;;;;;;;0.90;0.70;;;;;;;;;;5043957;28;20424;-76
2023/07/10 14:12:15;;;;;;;0.90;0.60;;;;;;;;;;5045492;28;20444;-76
2023/07/10 14:14:42;;;;;;;0.90;0.60;;;;;;;;;;5043129;28;20446;-76
2023/07/10 14:17:12;;;;;;;0.80;0.50;;;;;;;;;;5051892;28;20539;-78
2023/07/10 14:19:38;;;;;;;0.93;0.70;;;;;;;;;;5060133;28;20537;-77
2023/07/10 14:22:09;;;;;;;0.90;0.80;;;;;;;;;;5047673;28;20471;-78
2023/07/10 14:24:36;;;;;;;0.90;0.50;;;;;;;;;;5048603;28;20523;-77
2023/07/10 14:27:04;;;;;;;0.90;0.60;;;;;;;;;;5042029;28;20479;-75
2023/07/10 14:29:33;;;;;;;0.90;0.60;;;;;;;;;;5038697;28;20974;-75
2023/07/10 14:31:59;;;;;;;1.00;0.60;;;;;;;;;;5044348;28;20506;-77
2023/07/10 14:34:26;;;;;;;0.90;0.50;;;;;;;;;;5040459;28;20428;-77
2023/07/10 14:36:52;;;;;;;0.83;0.50;;;;;;;;;;5052314;28;20451;-76
2023/07/10 14:39:20;;;;;;;0.90;0.50;;;;;;;;;;5044759;28;20478;-75
2023/07/10 14:41:47;;;;;;;0.80;0.50;;;;;;;;;;5047806;28;20443;-77
2023/07/10 14:44:13;;;;;;;0.80;0.50;;;;;;;;;;5044110;28;20435;-77
2023/07/10 14:46:40;;;;;;;0.90;0.50;;;;;;;;;;5041399;28;20523;-77
2023/07/10 14:49:13;;;;;;;0.90;0.60;;;;;;;;;;5046196;28;20513;-75
2023/07/10 14:51:40;;;;;;;0.90;0.60;;;;;;;;;;5039879;28;20451;-77